Terminal Aerodrome Forecast
Issued by NWS Cleveland, OH

Home | Current Version | Previous Version | Graphics & Text | Print | Product List | Glossary On
Versions: 1 2 3 4 5 6 7 8 9 10 11 12 13
320
FTUS41 KCLE 250537
TAFYNG
TAF
KYNG 250537Z 2506/2606 33008KT P6SM SCT015 OVC028
      TEMPO 2508/2512 BKN015
     FM251200 33005KT P6SM BKN015 OVC028
     FM251800 35006KT P6SM BKN035
     FM252200 36007KT P6SM SCT040
     FM260200 05004KT P6SM FEW250=

USA.gov is the U.S. government's official web portal to all federal, state and local government web resources and services.